createdAt,value
2023-11-29T00:00:08.643Z,2.50
2023-11-29T00:02:35.508Z,2.92
2023-11-29T00:05:04.540Z,2.72
2023-11-29T00:07:31.412Z,2.47
2023-11-29T00:09:58.235Z,2.85
2023-11-29T00:12:25.063Z,3.10
2023-11-29T00:14:51.867Z,2.50
2023-11-29T00:17:18.902Z,3.33
2023-11-29T00:19:45.634Z,2.58
2023-11-29T00:22:12.472Z,3.08
2023-11-29T00:24:39.234Z,2.97
2023-11-29T00:27:06.779Z,3.05
2023-11-29T00:29:33.761Z,2.90
2023-11-29T00:32:01.421Z,3.50
2023-11-29T00:34:28.233Z,3.35
2023-11-29T00:36:55.319Z,2.20
2023-11-29T00:39:22.084Z,3.35
2023-11-29T00:41:49.021Z,2.67
2023-11-29T00:44:16.172Z,3.38
2023-11-29T00:46:43.346Z,2.92
2023-11-29T00:49:10.161Z,3.25
2023-11-29T00:51:37.320Z,2.72
2023-11-29T00:54:04.134Z,3.63
2023-11-29T00:56:31.021Z,3.67
2023-11-29T00:58:57.762Z,3.40
2023-11-29T01:01:24.667Z,3.60
2023-11-29T01:03:51.508Z,3.58
2023-11-29T01:06:18.639Z,3.20
2023-11-29T01:08:45.698Z,3.25
2023-11-29T01:11:12.605Z,3.63
2023-11-29T01:13:39.603Z,3.20
2023-11-29T01:16:06.590Z,3.65
2023-11-29T01:18:34.757Z,2.78
2023-11-29T01:21:01.783Z,2.97
2023-11-29T01:23:28.647Z,3.25
2023-11-29T01:25:55.487Z,3.70
2023-11-29T01:28:23.324Z,3.08
2023-11-29T01:30:50.231Z,2.95
2023-11-29T01:33:17.125Z,3.00
2023-11-29T01:35:43.909Z,3.15
2023-11-29T01:38:10.857Z,3.15
2023-11-29T01:40:37.770Z,3.05
2023-11-29T01:43:07.457Z,3.58
2023-11-29T01:45:34.395Z,3.10
2023-11-29T01:48:01.678Z,3.65
2023-11-29T01:50:33.777Z,3.60
2023-11-29T01:53:03.964Z,3.65
2023-11-29T01:55:35.160Z,3.38
2023-11-29T01:58:02.450Z,3.63
2023-11-29T02:00:29.310Z,3.28
2023-11-29T02:02:56.308Z,3.60
2023-11-29T02:05:23.436Z,3.80
2023-11-29T02:07:50.249Z,3.45
2023-11-29T02:10:17.353Z,3.78
2023-11-29T02:12:44.189Z,3.42
2023-11-29T02:15:11.810Z,4.05
2023-11-29T02:17:38.714Z,3.67
2023-11-29T02:20:06.374Z,3.83
2023-11-29T02:22:37.205Z,4.10
2023-11-29T02:25:05.136Z,4.13
2023-11-29T02:27:32.143Z,3.78
2023-11-29T02:29:58.899Z,4.13
2023-11-29T02:32:25.759Z,4.13
2023-11-29T02:34:52.601Z,3.47
2023-11-29T02:37:19.363Z,4.03
2023-11-29T02:39:46.078Z,4.53
2023-11-29T02:42:12.835Z,4.18
2023-11-29T02:44:39.622Z,4.32
2023-11-29T02:47:07.306Z,4.43
2023-11-29T02:49:34.129Z,4.20
2023-11-29T02:52:00.874Z,3.70
2023-11-29T02:54:27.635Z,4.00
2023-11-29T02:56:54.392Z,4.10
2023-11-29T02:59:21.209Z,4.28
2023-11-29T03:01:48.053Z,4.78
2023-11-29T03:04:14.923Z,4.10
2023-11-29T03:06:41.671Z,4.10
2023-11-29T03:09:08.425Z,4.38
2023-11-29T03:11:35.231Z,3.65
2023-11-29T03:14:02.141Z,4.38
2023-11-29T03:16:29.142Z,4.10
2023-11-29T03:18:55.928Z,4.30
2023-11-29T03:21:22.730Z,4.32
2023-11-29T03:23:49.681Z,4.38
2023-11-29T03:26:16.530Z,3.97
2023-11-29T03:28:43.234Z,4.28
2023-11-29T03:31:10.070Z,3.80
2023-11-29T03:33:36.960Z,4.13
2023-11-29T03:36:04.029Z,4.03
2023-11-29T03:38:30.853Z,4.30
2023-11-29T03:40:57.660Z,4.28
2023-11-29T03:43:24.592Z,4.55
2023-11-29T03:45:51.603Z,3.75
2023-11-29T03:48:18.420Z,3.88
2023-11-29T03:50:45.969Z,3.88
2023-11-29T03:53:13.011Z,4.10
2023-11-29T03:55:39.911Z,4.07
2023-11-29T03:58:08.563Z,4.03
2023-11-29T04:00:35.533Z,3.47
2023-11-29T04:03:02.463Z,3.95
2023-11-29T04:05:29.706Z,4.90
2023-11-29T04:07:56.553Z,5.15
2023-11-29T04:10:23.353Z,4.07
2023-11-29T04:12:50.185Z,4.97
2023-11-29T04:15:17.124Z,4.45
2023-11-29T04:17:44.232Z,4.88
2023-11-29T04:20:11.554Z,4.70
2023-11-29T04:22:39.300Z,4.95
2023-11-29T04:25:09.889Z,4.28
2023-11-29T04:27:38.335Z,4.75
2023-11-29T04:30:06.138Z,4.88
2023-11-29T04:32:33.135Z,5.10
2023-11-29T04:35:00.443Z,4.85
2023-11-29T04:37:27.207Z,5.60
2023-11-29T04:39:54.001Z,4.63
2023-11-29T04:42:22.148Z,5.05
2023-11-29T04:44:48.957Z,5.30
2023-11-29T04:47:16.523Z,5.22
2023-11-29T04:49:43.487Z,5.25
2023-11-29T04:52:10.288Z,5.70
2023-11-29T04:54:37.165Z,4.80
2023-11-29T04:57:04.336Z,6.03
2023-11-29T04:59:32.223Z,5.43
2023-11-29T05:01:59.586Z,6.38
2023-11-29T05:04:26.414Z,5.95
2023-11-29T05:06:53.240Z,6.07
2023-11-29T05:09:20.146Z,6.53
2023-11-29T05:11:47.032Z,6.75
2023-11-29T05:14:16.865Z,6.25
2023-11-29T05:16:44.419Z,6.05
2023-11-29T05:19:11.542Z,6.85
2023-11-29T05:21:38.637Z,6.80
2023-11-29T05:24:06.149Z,7.15
2023-11-29T05:26:33.655Z,6.63
2023-11-29T05:29:01.669Z,6.25
2023-11-29T05:31:30.500Z,6.40
2023-11-29T05:33:57.469Z,6.60
2023-11-29T05:36:24.375Z,6.75
2023-11-29T05:38:51.260Z,6.20
2023-11-29T05:41:18.353Z,6.97
2023-11-29T05:43:45.149Z,6.35
2023-11-29T05:46:11.959Z,6.53
2023-11-29T05:48:38.738Z,6.82
2023-11-29T05:51:05.868Z,7.18
2023-11-29T05:53:32.798Z,6.95
2023-11-29T05:55:59.642Z,7.80
2023-11-29T05:58:26.450Z,8.13
2023-11-29T06:00:54.108Z,7.22
2023-11-29T06:03:22.882Z,8.35
2023-11-29T06:05:50.310Z,8.38
2023-11-29T06:08:17.489Z,8.38
2023-11-29T06:10:45.409Z,8.25
2023-11-29T06:13:12.252Z,8.00
2023-11-29T06:15:39.072Z,7.68
2023-11-29T06:18:06.971Z,8.55
2023-11-29T06:20:33.949Z,8.65
2023-11-29T06:23:00.793Z,8.20
2023-11-29T06:25:28.014Z,8.45
2023-11-29T06:27:54.842Z,8.05
2023-11-29T06:30:21.775Z,8.25
2023-11-29T06:32:48.643Z,8.82
2023-11-29T06:35:17.124Z,8.82
2023-11-29T06:37:49.400Z,9.00
2023-11-29T06:40:21.012Z,9.02
2023-11-29T06:42:49.127Z,8.00
2023-11-29T06:45:20.614Z,9.43
2023-11-29T06:47:48.501Z,9.38
2023-11-29T06:50:15.858Z,9.88
2023-11-29T06:52:44.955Z,7.95
2023-11-29T06:55:12.116Z,10.20
2023-11-29T06:57:39.422Z,9.07
2023-11-29T07:00:12.767Z,9.63
2023-11-29T07:02:40.894Z,8.73
2023-11-29T07:05:08.810Z,9.00
2023-11-29T07:07:36.362Z,9.65
2023-11-29T07:10:06.259Z,9.98
2023-11-29T07:12:33.396Z,10.00
2023-11-29T07:15:00.783Z,8.70
2023-11-29T07:17:28.015Z,9.70
2023-11-29T07:19:55.253Z,9.57
2023-11-29T07:22:25.714Z,10.00
2023-11-29T07:24:53.559Z,9.43
2023-11-29T07:27:21.756Z,9.30
2023-11-29T07:29:48.485Z,9.77
2023-11-29T07:32:16.481Z,9.27
2023-11-29T07:34:45.969Z,9.85
2023-11-29T07:37:20.586Z,10.23
2023-11-29T07:39:47.963Z,10.57
2023-11-29T07:42:15.852Z,10.05
2023-11-29T07:44:42.978Z,11.20
2023-11-29T07:47:10.155Z,10.00
2023-11-29T07:49:37.271Z,11.90
2023-11-29T07:52:04.571Z,11.07
2023-11-29T07:54:32.387Z,10.75
2023-11-29T07:56:59.681Z,11.00
2023-11-29T07:59:27.970Z,11.10
2023-11-29T08:01:55.030Z,11.13
2023-11-29T08:04:21.974Z,11.02
2023-11-29T08:06:48.967Z,10.77
2023-11-29T08:09:15.773Z,9.93
2023-11-29T08:11:45.989Z,9.82
2023-11-29T08:14:13.109Z,10.25
2023-11-29T08:16:39.875Z,9.27
2023-11-29T08:19:07.827Z,10.02
2023-11-29T08:21:34.866Z,10.05
2023-11-29T08:24:01.740Z,10.27
2023-11-29T08:26:28.745Z,9.45
2023-11-29T08:28:55.622Z,10.25
2023-11-29T08:31:22.553Z,8.70
2023-11-29T08:33:49.305Z,10.25
2023-11-29T08:36:17.263Z,10.88
2023-11-29T08:38:44.296Z,11.13
2023-11-29T08:41:11.228Z,9.30
2023-11-29T08:43:38.059Z,9.48
2023-11-29T08:46:05.175Z,9.55
2023-11-29T08:48:32.279Z,9.82
2023-11-29T08:50:59.131Z,8.32
2023-11-29T08:53:33.415Z,5.43
2023-11-29T08:56:14.985Z,8.35
2023-11-29T08:58:41.766Z,8.88
2023-11-29T09:01:10.142Z,8.93
2023-11-29T09:03:37.357Z,9.05
2023-11-29T09:06:04.266Z,8.60
2023-11-29T09:08:32.081Z,8.70
2023-11-29T09:10:59.041Z,9.95
2023-11-29T09:13:25.895Z,8.75
2023-11-29T09:15:52.923Z,9.77
2023-11-29T09:18:19.966Z,9.73
2023-11-29T09:20:46.985Z,8.82
2023-11-29T09:23:13.876Z,7.97
2023-11-29T09:25:40.990Z,9.23
2023-11-29T09:28:08.048Z,8.23
2023-11-29T09:30:35.476Z,9.02
2023-11-29T09:33:02.458Z,7.82
2023-11-29T09:35:29.641Z,8.38
2023-11-29T09:37:56.546Z,8.07
2023-11-29T09:40:23.560Z,8.40
2023-11-29T09:42:51.007Z,9.70
2023-11-29T09:45:24.014Z,9.15
2023-11-29T09:47:51.119Z,8.23
2023-11-29T09:50:21.187Z,7.72
2023-11-29T09:52:48.151Z,7.40
2023-11-29T09:55:15.849Z,8.63
2023-11-29T09:57:43.462Z,8.90
2023-11-29T10:00:11.526Z,8.48
2023-11-29T10:02:39.579Z,7.72
2023-11-29T10:05:06.723Z,8.90
2023-11-29T10:07:33.731Z,8.57
2023-11-29T10:10:06.734Z,9.68
2023-11-29T10:12:37.152Z,8.27
2023-11-29T10:15:07.827Z,9.25
2023-11-29T10:17:43.234Z,9.27
2023-11-29T10:20:13.252Z,9.20
2023-11-29T10:22:40.056Z,7.55
2023-11-29T10:25:19.414Z,8.98
2023-11-29T10:27:46.805Z,8.98
2023-11-29T10:30:14.979Z,9.52
2023-11-29T10:32:46.274Z,9.23
2023-11-29T10:35:15.088Z,8.18
2023-11-29T10:37:51.681Z,9.52
2023-11-29T10:40:19.225Z,8.93
2023-11-29T10:42:51.373Z,9.32
2023-11-29T10:45:20.609Z,9.05
2023-11-29T10:47:59.511Z,8.80
2023-11-29T10:50:28.710Z,9.25
2023-11-29T10:52:55.673Z,10.50
2023-11-29T10:55:23.628Z,8.50
2023-11-29T10:58:14.550Z,8.52
2023-11-29T11:00:46.213Z,6.88
2023-11-29T11:03:38.777Z,9.38
2023-11-29T11:06:24.127Z,9.73
2023-11-29T11:08:54.834Z,9.15
2023-11-29T11:11:40.207Z,9.27
2023-11-29T11:14:23.647Z,8.73
2023-11-29T11:17:02.513Z,9.30
2023-11-29T11:19:40.288Z,8.52
2023-11-29T11:22:10.403Z,8.38
2023-11-29T11:24:55.711Z,9.20
2023-11-29T11:27:30.138Z,9.02
2023-11-29T11:29:57.799Z,8.30
2023-11-29T11:32:34.347Z,8.52
2023-11-29T11:35:19.888Z,9.23
2023-11-29T11:37:50.678Z,9.18
2023-11-29T11:40:18.841Z,8.18
2023-11-29T11:42:49.348Z,7.68
2023-11-29T11:45:17.408Z,8.07
2023-11-29T11:47:45.190Z,7.82
2023-11-29T11:50:13.383Z,8.00
2023-11-29T11:52:40.923Z,9.10
2023-11-29T11:55:09.851Z,7.72
2023-11-29T11:57:37.622Z,8.68
2023-11-29T12:00:08.551Z,7.90
2023-11-29T12:02:36.405Z,8.43
2023-11-29T12:05:08.580Z,8.45
2023-11-29T12:10:15.362Z,7.95
2023-11-29T12:12:44.259Z,7.38
2023-11-29T12:15:18.402Z,8.73
2023-11-29T12:17:47.748Z,8.60
2023-11-29T12:20:15.615Z,8.52
2023-11-29T12:22:46.691Z,8.73
2023-11-29T12:25:15.208Z,8.63
2023-11-29T12:27:46.965Z,8.15
2023-11-29T12:30:15.110Z,9.73
2023-11-29T12:32:42.698Z,8.55
2023-11-29T12:35:11.729Z,9.05
2023-11-29T12:37:47.398Z,9.10
2023-11-29T12:40:18.891Z,7.03
2023-11-29T12:42:47.709Z,8.35
2023-11-29T12:45:15.433Z,7.40
2023-11-29T12:47:42.711Z,8.88
2023-11-29T12:50:10.799Z,8.05
2023-11-29T12:52:37.774Z,8.15
2023-11-29T12:55:05.202Z,6.97
2023-11-29T12:57:31.994Z,7.85
2023-11-29T12:59:59.215Z,8.18
2023-11-29T13:02:26.836Z,8.18
2023-11-29T13:04:53.816Z,8.05
2023-11-29T13:07:20.578Z,8.00
2023-11-29T13:09:47.487Z,9.35
2023-11-29T13:12:14.569Z,8.02
2023-11-29T13:14:43.662Z,8.32
2023-11-29T13:17:14.727Z,7.35
2023-11-29T13:19:42.395Z,8.40
2023-11-29T13:22:09.955Z,7.47
2023-11-29T13:24:37.254Z,7.90
2023-11-29T13:27:07.006Z,8.65
2023-11-29T13:29:37.211Z,8.07
2023-11-29T13:32:05.100Z,9.02
2023-11-29T13:34:33.712Z,7.93
2023-11-29T13:37:01.823Z,8.48
2023-11-29T13:39:29.700Z,8.75
2023-11-29T13:41:57.277Z,8.77
2023-11-29T13:44:28.297Z,8.10
2023-11-29T13:46:56.076Z,7.43
2023-11-29T13:49:23.043Z,8.18
2023-11-29T13:52:00.992Z,8.52
2023-11-29T13:54:35.685Z,8.15
2023-11-29T13:57:03.261Z,9.40
2023-11-29T13:59:30.389Z,7.57
2023-11-29T14:01:57.572Z,8.70
2023-11-29T14:04:25.175Z,8.65
2023-11-29T14:06:55.001Z,8.73
2023-11-29T14:09:21.781Z,9.75
2023-11-29T14:11:48.578Z,7.88
2023-11-29T14:14:19.865Z,9.20
2023-11-29T14:16:47.491Z,9.05
2023-11-29T14:19:14.939Z,8.73
2023-11-29T14:21:42.620Z,7.85
2023-11-29T14:24:09.508Z,8.45
2023-11-29T14:26:36.698Z,8.88
2023-11-29T14:29:05.020Z,8.10
2023-11-29T14:31:32.113Z,9.00
2023-11-29T14:33:59.362Z,8.98
2023-11-29T14:36:26.859Z,8.85
2023-11-29T14:38:53.680Z,9.38
2023-11-29T14:41:22.205Z,9.95
2023-11-29T14:43:49.980Z,8.93
2023-11-29T14:46:17.097Z,8.80
2023-11-29T14:48:44.049Z,9.82
2023-11-29T14:51:11.039Z,8.75
2023-11-29T14:53:37.939Z,9.43
2023-11-29T14:56:05.041Z,8.95
2023-11-29T14:58:32.058Z,10.23
2023-11-29T15:00:59.675Z,9.95
2023-11-29T15:03:28.393Z,9.60
2023-11-29T15:05:55.492Z,9.77
2023-11-29T15:08:22.377Z,10.20
2023-11-29T15:10:49.134Z,9.52
2023-11-29T15:13:16.031Z,9.65
2023-11-29T15:15:42.898Z,9.98
2023-11-29T15:18:09.900Z,9.65
2023-11-29T15:20:36.892Z,10.00
2023-11-29T15:23:03.949Z,8.85
2023-11-29T15:25:30.828Z,9.98
2023-11-29T15:27:57.634Z,9.15
2023-11-29T15:30:24.757Z,9.00
2023-11-29T15:32:53.613Z,10.07
2023-11-29T15:35:21.144Z,8.55
2023-11-29T15:37:48.495Z,9.30
2023-11-29T15:40:16.234Z,9.10
2023-11-29T15:42:43.170Z,9.27
2023-11-29T15:45:10.355Z,9.77
2023-11-29T15:47:37.345Z,9.63
2023-11-29T15:50:05.553Z,10.55
2023-11-29T15:52:32.532Z,9.43
2023-11-29T15:54:59.310Z,9.13
2023-11-29T15:57:27.386Z,9.65
2023-11-29T15:59:54.474Z,9.75
2023-11-29T16:02:21.591Z,9.90
2023-11-29T16:04:48.621Z,10.57
2023-11-29T16:07:15.434Z,10.57
2023-11-29T16:09:42.382Z,10.63
2023-11-29T16:12:09.590Z,9.07
2023-11-29T16:14:36.494Z,9.00
2023-11-29T16:17:03.422Z,10.57
2023-11-29T16:19:30.369Z,10.43
2023-11-29T16:21:57.322Z,9.85
2023-11-29T16:24:25.929Z,9.65
2023-11-29T16:26:53.854Z,9.98
2023-11-29T16:29:20.861Z,10.23
2023-11-29T16:31:47.767Z,9.95
2023-11-29T16:34:14.823Z,8.88
2023-11-29T16:36:41.684Z,9.93
2023-11-29T16:39:08.726Z,10.70
2023-11-29T16:41:35.940Z,9.77
2023-11-29T16:44:02.814Z,11.23
2023-11-29T16:46:32.091Z,10.63
2023-11-29T16:49:00.484Z,8.75
2023-11-29T16:51:28.147Z,10.05
2023-11-29T16:53:56.557Z,9.00
2023-11-29T16:56:26.600Z,9.98
2023-11-29T16:58:55.999Z,10.73
2023-11-29T17:01:26.961Z,10.73
2023-11-29T17:03:56.027Z,9.73
2023-11-29T17:06:24.188Z,10.75
2023-11-29T17:08:54.785Z,10.65
2023-11-29T17:11:23.227Z,10.48
2023-11-29T17:13:53.986Z,9.60
2023-11-29T17:16:21.626Z,10.57
2023-11-29T17:18:48.984Z,10.07
2023-11-29T17:21:16.058Z,10.20
2023-11-29T17:23:42.864Z,9.95
2023-11-29T17:26:12.814Z,9.63
2023-11-29T17:28:40.269Z,9.95
2023-11-29T17:31:08.547Z,9.75
2023-11-29T17:33:35.414Z,9.77
2023-11-29T17:36:02.470Z,10.57
2023-11-29T17:38:29.910Z,10.38
2023-11-29T17:40:56.755Z,10.02
2023-11-29T17:43:23.645Z,11.10
2023-11-29T17:45:53.024Z,11.57
2023-11-29T17:48:21.059Z,11.05
2023-11-29T17:50:48.031Z,11.63
2023-11-29T17:53:15.048Z,11.55
2023-11-29T17:55:41.956Z,10.75
2023-11-29T17:58:09.499Z,11.43
2023-11-29T18:00:36.412Z,11.82
2023-11-29T18:03:03.358Z,11.25
2023-11-29T18:05:30.296Z,13.32
2023-11-29T18:07:57.137Z,10.93
2023-11-29T18:10:24.128Z,10.10
2023-11-29T18:12:51.088Z,10.43
2023-11-29T18:15:18.018Z,10.25
2023-11-29T18:17:45.157Z,11.38
2023-11-29T18:20:12.187Z,9.90
2023-11-29T18:22:39.480Z,10.95
2023-11-29T18:25:07.574Z,10.90
2023-11-29T18:27:34.331Z,10.10
2023-11-29T18:30:01.356Z,10.07
2023-11-29T18:32:28.253Z,10.25
2023-11-29T18:34:55.149Z,10.30
2023-11-29T18:37:22.132Z,10.10
2023-11-29T18:39:48.876Z,9.40
2023-11-29T18:42:16.259Z,8.93
2023-11-29T18:44:43.656Z,9.10
2023-11-29T18:47:10.655Z,10.23
2023-11-29T18:49:37.406Z,9.38
2023-11-29T18:52:04.566Z,8.25
2023-11-29T18:54:31.427Z,7.47
2023-11-29T18:56:58.319Z,7.80
2023-11-29T18:59:25.371Z,6.32
2023-11-29T19:01:52.248Z,5.45
2023-11-29T19:04:19.770Z,5.20
2023-11-29T19:06:46.720Z,3.85
2023-11-29T19:09:13.507Z,3.45
2023-11-29T19:11:40.500Z,3.20
2023-11-29T19:14:07.428Z,3.42
2023-11-29T19:16:34.394Z,2.90
2023-11-29T19:19:01.356Z,3.38
2023-11-29T19:21:28.237Z,3.70
2023-11-29T19:23:58.365Z,3.22
2023-11-29T19:26:33.172Z,3.00
2023-11-29T19:29:02.517Z,2.88
2023-11-29T19:31:30.046Z,3.05
2023-11-29T19:33:57.235Z,3.38
2023-11-29T19:36:24.131Z,3.45
2023-11-29T19:38:51.056Z,2.65
2023-11-29T19:41:17.912Z,3.13
2023-11-29T19:43:44.764Z,3.38
2023-11-29T19:46:15.070Z,3.22
2023-11-29T19:48:42.160Z,3.17
2023-11-29T19:51:09.243Z,3.55
2023-11-29T19:53:36.053Z,3.10
2023-11-29T19:56:02.871Z,3.25
2023-11-29T19:58:32.549Z,3.42
2023-11-29T20:01:00.925Z,2.75
2023-11-29T20:03:28.590Z,3.10
2023-11-29T20:05:55.717Z,3.53
2023-11-29T20:08:22.666Z,3.08
2023-11-29T20:10:55.517Z,3.60
2023-11-29T20:13:23.882Z,2.83
2023-11-29T20:15:51.730Z,3.38
2023-11-29T20:18:18.782Z,3.45
2023-11-29T20:20:57.819Z,3.13
2023-11-29T20:23:28.835Z,3.08
2023-11-29T20:25:57.748Z,3.22
2023-11-29T20:28:24.956Z,3.42
2023-11-29T20:30:53.302Z,3.40
2023-11-29T20:33:21.232Z,3.03
2023-11-29T20:35:48.528Z,2.28
2023-11-29T20:38:15.613Z,2.58
2023-11-29T20:40:47.559Z,2.60
2023-11-29T20:43:19.029Z,2.58
2023-11-29T20:45:46.184Z,2.90
2023-11-29T20:48:13.711Z,2.15
2023-11-29T20:50:41.094Z,2.42
2023-11-29T20:53:17.331Z,2.50
2023-11-29T20:55:50.783Z,2.53
2023-11-29T20:58:21.953Z,2.55
2023-11-29T21:00:49.622Z,2.20
2023-11-29T21:03:16.873Z,2.22
2023-11-29T21:05:44.379Z,2.58
2023-11-29T21:08:11.433Z,2.33
2023-11-29T21:10:38.414Z,2.58
2023-11-29T21:13:05.748Z,2.03
2023-11-29T21:15:33.458Z,2.28
2023-11-29T21:18:00.618Z,2.00
2023-11-29T21:20:27.647Z,2.53
2023-11-29T21:22:54.551Z,2.47
2023-11-29T21:25:21.388Z,2.50
2023-11-29T21:27:48.329Z,2.28
2023-11-29T21:30:15.591Z,2.58
2023-11-29T21:32:42.908Z,2.15
2023-11-29T21:35:09.910Z,2.45
2023-11-29T21:37:36.922Z,2.38
2023-11-29T21:40:04.641Z,2.83
2023-11-29T21:42:31.496Z,2.67
2023-11-29T21:44:58.401Z,2.65
2023-11-29T21:47:25.178Z,2.75
2023-11-29T21:49:52.360Z,2.72
2023-11-29T21:52:19.260Z,2.80
2023-11-29T21:54:46.267Z,2.20
2023-11-29T21:57:13.120Z,3.33
2023-11-29T21:59:41.936Z,3.10
2023-11-29T22:02:09.083Z,3.00
2023-11-29T22:04:36.036Z,2.92
2023-11-29T22:07:02.842Z,2.05
2023-11-29T22:09:29.696Z,2.35
2023-11-29T22:11:56.946Z,2.35
2023-11-29T22:14:26.685Z,2.30
2023-11-29T22:16:57.623Z,1.88
2023-11-29T22:19:24.661Z,1.77
2023-11-29T22:21:54.268Z,1.55
2023-11-29T22:24:22.886Z,1.88
2023-11-29T22:26:55.357Z,2.00
2023-11-29T22:29:26.414Z,1.67
2023-11-29T22:31:54.505Z,1.48
2023-11-29T22:34:21.808Z,1.60
2023-11-29T22:36:51.799Z,1.50
2023-11-29T22:39:18.769Z,1.60
2023-11-29T22:41:45.691Z,1.83
2023-11-29T22:44:12.829Z,2.33
2023-11-29T22:46:41.046Z,1.77
2023-11-29T22:49:08.482Z,1.83
2023-11-29T22:51:36.081Z,1.77
2023-11-29T22:54:06.387Z,1.30
2023-11-29T22:56:38.102Z,1.92
2023-11-29T22:59:08.295Z,1.58
2023-11-29T23:01:35.422Z,1.55
2023-11-29T23:04:03.474Z,2.00
2023-11-29T23:06:31.109Z,1.60
2023-11-29T23:08:58.109Z,1.42
2023-11-29T23:11:25.116Z,1.50
2023-11-29T23:13:52.931Z,2.17
2023-11-29T23:16:20.137Z,2.03
2023-11-29T23:18:48.216Z,2.00
2023-11-29T23:21:15.311Z,2.10
2023-11-29T23:23:44.408Z,2.25
2023-11-29T23:26:11.438Z,2.90
2023-11-29T23:28:38.335Z,2.50
2023-11-29T23:31:05.561Z,1.95
2023-11-29T23:33:32.562Z,1.73
2023-11-29T23:35:59.540Z,1.60
2023-11-29T23:38:26.295Z,1.88
2023-11-29T23:40:53.278Z,2.20
2023-11-29T23:43:20.345Z,2.33
2023-11-29T23:45:47.230Z,1.85
2023-11-29T23:48:14.046Z,2.00
2023-11-29T23:50:40.861Z,1.80
2023-11-29T23:53:07.791Z,2.28
2023-11-29T23:55:34.535Z,2.08
2023-11-29T23:58:01.359Z,2.08
